sensor_id;sensor_type;location;lat;lon;timestamp;P1;durP1;ratioP1;P2;durP2;ratioP2
75261;SDS011;63859;51.064;4.580;2022-10-24T00:02:24;7.97;;;2.78;;
75261;SDS011;63859;51.064;4.580;2022-10-24T00:04:50;8.18;;;2.30;;
75261;SDS011;63859;51.064;4.580;2022-10-24T00:07:16;12.15;;;2.80;;
75261;SDS011;63859;51.064;4.580;2022-10-24T00:09:41;10.43;;;2.47;;
75261;SDS011;63859;51.064;4.580;2022-10-24T00:12:07;7.63;;;2.25;;
75261;SDS011;63859;51.064;4.580;2022-10-24T00:14:33;9.43;;;2.67;;
75261;SDS011;63859;51.064;4.580;2022-10-24T00:16:59;13.07;;;2.65;;
75261;SDS011;63859;51.064;4.580;2022-10-24T00:19:25;9.00;;;2.42;;
75261;SDS011;63859;51.064;4.580;2022-10-24T00:21:51;8.02;;;2.40;;
75261;SDS011;63859;51.064;4.580;2022-10-24T00:24:17;7.85;;;2.30;;
75261;SDS011;63859;51.064;4.580;2022-10-24T00:26:43;6.43;;;2.03;;
75261;SDS011;63859;51.064;4.580;2022-10-24T00:29:09;4.63;;;2.42;;
75261;SDS011;63859;51.064;4.580;2022-10-24T00:31:35;9.35;;;2.40;;
75261;SDS011;63859;51.064;4.580;2022-10-24T00:34:01;9.80;;;2.25;;
75261;SDS011;63859;51.064;4.580;2022-10-24T00:36:27;10.18;;;2.50;;
75261;SDS011;63859;51.064;4.580;2022-10-24T00:38:53;6.18;;;2.20;;
75261;SDS011;63859;51.064;4.580;2022-10-24T00:41:20;6.50;;;1.92;;
75261;SDS011;63859;51.064;4.580;2022-10-24T00:46:54;6.35;;;2.13;;
75261;SDS011;63859;51.064;4.580;2022-10-24T00:49:32;7.32;;;2.17;;
75261;SDS011;63859;51.064;4.580;2022-10-24T00:52:25;9.88;;;2.40;;
75261;SDS011;63859;51.064;4.580;2022-10-24T00:55:02;8.05;;;1.85;;
75261;SDS011;63859;51.064;4.580;2022-10-24T00:57:33;9.27;;;2.08;;
75261;SDS011;63859;51.064;4.580;2022-10-24T01:00:09;4.50;;;1.98;;
75261;SDS011;63859;51.064;4.580;2022-10-24T01:02:37;7.65;;;2.35;;
75261;SDS011;63859;51.064;4.580;2022-10-24T01:05:05;7.88;;;1.95;;
75261;SDS011;63859;51.064;4.580;2022-10-24T01:12:55;4.80;;;2.00;;
75261;SDS011;63859;51.064;4.580;2022-10-24T01:15:27;6.07;;;1.88;;
75261;SDS011;63859;51.064;4.580;2022-10-24T01:18:29;6.10;;;1.92;;
75261;SDS011;63859;51.064;4.580;2022-10-24T01:35:00;5.22;;;1.75;;
75261;SDS011;63859;51.064;4.580;2022-10-24T01:37:33;4.95;;;1.77;;
75261;SDS011;63859;51.064;4.580;2022-10-24T01:40:31;7.38;;;1.75;;
75261;SDS011;63859;51.064;4.580;2022-10-24T01:43:00;6.57;;;1.90;;
75261;SDS011;63859;51.064;4.580;2022-10-24T01:45:30;5.55;;;1.90;;
75261;SDS011;63859;51.064;4.580;2022-10-24T01:47:59;6.30;;;1.73;;
75261;SDS011;63859;51.064;4.580;2022-10-24T01:50:27;4.72;;;1.75;;
75261;SDS011;63859;51.064;4.580;2022-10-24T01:52:54;6.07;;;1.83;;
75261;SDS011;63859;51.064;4.580;2022-10-24T01:55:22;6.55;;;1.80;;
75261;SDS011;63859;51.064;4.580;2022-10-24T01:57:48;7.70;;;1.85;;
75261;SDS011;63859;51.064;4.580;2022-10-24T02:00:15;5.57;;;1.80;;
75261;SDS011;63859;51.064;4.580;2022-10-24T02:02:58;8.02;;;2.00;;
75261;SDS011;63859;51.064;4.580;2022-10-24T02:05:28;8.80;;;1.52;;
75261;SDS011;63859;51.064;4.580;2022-10-24T02:08:06;5.82;;;1.73;;
75261;SDS011;63859;51.064;4.580;2022-10-24T02:10:36;14.00;;;2.13;;
75261;SDS011;63859;51.064;4.580;2022-10-24T02:16:20;8.77;;;2.17;;
75261;SDS011;63859;51.064;4.580;2022-10-24T02:18:47;3.72;;;1.20;;
75261;SDS011;63859;51.064;4.580;2022-10-24T02:21:27;5.13;;;1.67;;
75261;SDS011;63859;51.064;4.580;2022-10-24T02:24:32;6.25;;;2.45;;
75261;SDS011;63859;51.064;4.580;2022-10-24T02:30:18;9.80;;;1.70;;
75261;SDS011;63859;51.064;4.580;2022-10-24T02:32:48;8.45;;;1.90;;
75261;SDS011;63859;51.064;4.580;2022-10-24T02:35:20;7.80;;;1.83;;
75261;SDS011;63859;51.064;4.580;2022-10-24T02:37:51;3.47;;;1.50;;
75261;SDS011;63859;51.064;4.580;2022-10-24T02:40:21;7.70;;;1.90;;
75261;SDS011;63859;51.064;4.580;2022-10-24T02:42:48;11.85;;;2.03;;
75261;SDS011;63859;51.064;4.580;2022-10-24T02:45:16;8.07;;;1.88;;
75261;SDS011;63859;51.064;4.580;2022-10-24T02:47:43;5.60;;;1.73;;
75261;SDS011;63859;51.064;4.580;2022-10-24T02:50:11;6.00;;;1.80;;
75261;SDS011;63859;51.064;4.580;2022-10-24T02:52:37;10.57;;;1.92;;
75261;SDS011;63859;51.064;4.580;2022-10-24T02:55:04;11.38;;;1.83;;
75261;SDS011;63859;51.064;4.580;2022-10-24T02:57:30;6.70;;;2.10;;
75261;SDS011;63859;51.064;4.580;2022-10-24T02:59:56;5.75;;;1.92;;
75261;SDS011;63859;51.064;4.580;2022-10-24T03:02:22;9.10;;;2.30;;
75261;SDS011;63859;51.064;4.580;2022-10-24T03:04:48;8.32;;;1.90;;
75261;SDS011;63859;51.064;4.580;2022-10-24T03:07:13;7.47;;;1.85;;
75261;SDS011;63859;51.064;4.580;2022-10-24T03:09:39;5.50;;;1.73;;
75261;SDS011;63859;51.064;4.580;2022-10-24T03:12:05;8.07;;;2.10;;
75261;SDS011;63859;51.064;4.580;2022-10-24T03:14:30;10.55;;;2.10;;
75261;SDS011;63859;51.064;4.580;2022-10-24T03:16:56;7.40;;;2.17;;
75261;SDS011;63859;51.064;4.580;2022-10-24T03:19:22;8.85;;;2.20;;
75261;SDS011;63859;51.064;4.580;2022-10-24T03:21:47;9.20;;;2.33;;
75261;SDS011;63859;51.064;4.580;2022-10-24T03:24:13;7.13;;;2.20;;
75261;SDS011;63859;51.064;4.580;2022-10-24T03:26:39;5.28;;;1.67;;
75261;SDS011;63859;51.064;4.580;2022-10-24T03:29:04;7.35;;;2.00;;
75261;SDS011;63859;51.064;4.580;2022-10-24T03:31:30;10.65;;;1.92;;
75261;SDS011;63859;51.064;4.580;2022-10-24T03:33:56;9.13;;;2.20;;
75261;SDS011;63859;51.064;4.580;2022-10-24T03:36:22;7.97;;;2.08;;
75261;SDS011;63859;51.064;4.580;2022-10-24T03:38:48;8.52;;;2.30;;
75261;SDS011;63859;51.064;4.580;2022-10-24T03:41:14;8.15;;;1.77;;
75261;SDS011;63859;51.064;4.580;2022-10-24T03:43:39;11.32;;;2.22;;
75261;SDS011;63859;51.064;4.580;2022-10-24T03:46:05;8.73;;;2.03;;
75261;SDS011;63859;51.064;4.580;2022-10-24T03:48:30;8.07;;;1.75;;
75261;SDS011;63859;51.064;4.580;2022-10-24T03:50:56;9.38;;;1.67;;
75261;SDS011;63859;51.064;4.580;2022-10-24T03:53:22;8.70;;;2.00;;
75261;SDS011;63859;51.064;4.580;2022-10-24T03:55:48;8.65;;;2.13;;
75261;SDS011;63859;51.064;4.580;2022-10-24T03:58:13;8.23;;;2.25;;
75261;SDS011;63859;51.064;4.580;2022-10-24T04:00:39;9.02;;;1.70;;
75261;SDS011;63859;51.064;4.580;2022-10-24T04:03:05;9.90;;;2.20;;
75261;SDS011;63859;51.064;4.580;2022-10-24T04:05:33;7.03;;;1.67;;
75261;SDS011;63859;51.064;4.580;2022-10-24T04:07:58;10.63;;;2.00;;
75261;SDS011;63859;51.064;4.580;2022-10-24T04:10:24;8.32;;;1.88;;
75261;SDS011;63859;51.064;4.580;2022-10-24T04:12:50;10.52;;;2.10;;
75261;SDS011;63859;51.064;4.580;2022-10-24T04:15:15;10.57;;;2.08;;
75261;SDS011;63859;51.064;4.580;2022-10-24T04:17:41;7.53;;;1.70;;
75261;SDS011;63859;51.064;4.580;2022-10-24T04:20:07;6.68;;;1.80;;
75261;SDS011;63859;51.064;4.580;2022-10-24T04:22:33;9.90;;;2.38;;
75261;SDS011;63859;51.064;4.580;2022-10-24T04:24:58;12.82;;;2.30;;
75261;SDS011;63859;51.064;4.580;2022-10-24T04:27:24;10.52;;;2.22;;
75261;SDS011;63859;51.064;4.580;2022-10-24T04:29:50;11.82;;;2.10;;
75261;SDS011;63859;51.064;4.580;2022-10-24T04:32:15;11.40;;;1.95;;
75261;SDS011;63859;51.064;4.580;2022-10-24T04:34:41;12.50;;;2.42;;
75261;SDS011;63859;51.064;4.580;2022-10-24T04:37:06;7.70;;;2.10;;
75261;SDS011;63859;51.064;4.580;2022-10-24T04:39:32;14.68;;;2.55;;
75261;SDS011;63859;51.064;4.580;2022-10-24T04:41:58;7.70;;;1.92;;
75261;SDS011;63859;51.064;4.580;2022-10-24T04:44:23;9.82;;;2.00;;
75261;SDS011;63859;51.064;4.580;2022-10-24T04:46:49;11.00;;;2.42;;
75261;SDS011;63859;51.064;4.580;2022-10-24T04:49:15;14.43;;;2.45;;
75261;SDS011;63859;51.064;4.580;2022-10-24T04:51:41;10.02;;;2.58;;
75261;SDS011;63859;51.064;4.580;2022-10-24T04:54:07;12.43;;;2.33;;
75261;SDS011;63859;51.064;4.580;2022-10-24T04:56:33;8.90;;;2.30;;
75261;SDS011;63859;51.064;4.580;2022-10-24T04:58:58;10.23;;;2.85;;
75261;SDS011;63859;51.064;4.580;2022-10-24T05:01:24;10.82;;;2.28;;
75261;SDS011;63859;51.064;4.580;2022-10-24T05:03:50;13.10;;;1.90;;
75261;SDS011;63859;51.064;4.580;2022-10-24T05:06:15;10.07;;;2.33;;
75261;SDS011;63859;51.064;4.580;2022-10-24T05:08:41;12.60;;;2.58;;
75261;SDS011;63859;51.064;4.580;2022-10-24T05:11:07;7.57;;;2.05;;
75261;SDS011;63859;51.064;4.580;2022-10-24T05:13:36;8.60;;;2.28;;
75261;SDS011;63859;51.064;4.580;2022-10-24T05:16:03;13.02;;;2.20;;
75261;SDS011;63859;51.064;4.580;2022-10-24T05:18:29;11.38;;;2.03;;
75261;SDS011;63859;51.064;4.580;2022-10-24T05:20:56;12.00;;;2.55;;
75261;SDS011;63859;51.064;4.580;2022-10-24T05:23:22;9.32;;;1.83;;
75261;SDS011;63859;51.064;4.580;2022-10-24T05:25:48;11.25;;;2.50;;
75261;SDS011;63859;51.064;4.580;2022-10-24T05:28:14;12.13;;;2.85;;
75261;SDS011;63859;51.064;4.580;2022-10-24T05:30:41;10.95;;;2.67;;
75261;SDS011;63859;51.064;4.580;2022-10-24T05:33:10;12.68;;;2.53;;
75261;SDS011;63859;51.064;4.580;2022-10-24T05:35:36;11.88;;;2.53;;
75261;SDS011;63859;51.064;4.580;2022-10-24T05:38:02;15.57;;;2.30;;
75261;SDS011;63859;51.064;4.580;2022-10-24T05:40:28;12.60;;;2.30;;
75261;SDS011;63859;51.064;4.580;2022-10-24T05:42:53;14.90;;;2.67;;
75261;SDS011;63859;51.064;4.580;2022-10-24T05:45:19;12.60;;;2.40;;
75261;SDS011;63859;51.064;4.580;2022-10-24T05:47:45;11.60;;;2.47;;
75261;SDS011;63859;51.064;4.580;2022-10-24T05:50:10;9.68;;;2.22;;
75261;SDS011;63859;51.064;4.580;2022-10-24T05:52:36;18.83;;;2.83;;
75261;SDS011;63859;51.064;4.580;2022-10-24T05:55:04;12.27;;;2.40;;
75261;SDS011;63859;51.064;4.580;2022-10-24T05:57:31;13.15;;;2.47;;
75261;SDS011;63859;51.064;4.580;2022-10-24T05:59:57;11.57;;;2.70;;
75261;SDS011;63859;51.064;4.580;2022-10-24T06:02:22;7.97;;;2.30;;
75261;SDS011;63859;51.064;4.580;2022-10-24T06:04:48;14.82;;;2.78;;
75261;SDS011;63859;51.064;4.580;2022-10-24T06:07:15;13.20;;;2.88;;
75261;SDS011;63859;51.064;4.580;2022-10-24T06:09:43;19.75;;;3.53;;
75261;SDS011;63859;51.064;4.580;2022-10-24T06:12:09;20.50;;;3.17;;
75261;SDS011;63859;51.064;4.580;2022-10-24T06:14:36;16.25;;;2.75;;
75261;SDS011;63859;51.064;4.580;2022-10-24T06:17:03;15.15;;;2.90;;
75261;SDS011;63859;51.064;4.580;2022-10-24T06:19:30;22.40;;;3.03;;
75261;SDS011;63859;51.064;4.580;2022-10-24T06:21:56;18.77;;;2.75;;
75261;SDS011;63859;51.064;4.580;2022-10-24T06:24:21;13.52;;;2.67;;
75261;SDS011;63859;51.064;4.580;2022-10-24T06:26:47;20.98;;;2.95;;
75261;SDS011;63859;51.064;4.580;2022-10-24T06:29:13;19.42;;;2.97;;
75261;SDS011;63859;51.064;4.580;2022-10-24T06:31:38;12.40;;;2.70;;
75261;SDS011;63859;51.064;4.580;2022-10-24T06:34:04;12.95;;;2.80;;
75261;SDS011;63859;51.064;4.580;2022-10-24T06:36:29;10.13;;;2.40;;
75261;SDS011;63859;51.064;4.580;2022-10-24T06:38:55;11.65;;;2.70;;
75261;SDS011;63859;51.064;4.580;2022-10-24T06:41:21;15.70;;;2.90;;
75261;SDS011;63859;51.064;4.580;2022-10-24T06:43:47;17.00;;;2.85;;
75261;SDS011;63859;51.064;4.580;2022-10-24T06:46:14;8.50;;;2.20;;
75261;SDS011;63859;51.064;4.580;2022-10-24T06:48:40;6.20;;;1.73;;
75261;SDS011;63859;51.064;4.580;2022-10-24T06:51:06;12.63;;;2.10;;
75261;SDS011;63859;51.064;4.580;2022-10-24T06:53:32;11.95;;;1.92;;
75261;SDS011;63859;51.064;4.580;2022-10-24T06:55:59;8.70;;;1.92;;
75261;SDS011;63859;51.064;4.580;2022-10-24T06:58:29;10.90;;;1.90;;
75261;SDS011;63859;51.064;4.580;2022-10-24T07:00:59;7.43;;;1.80;;
75261;SDS011;63859;51.064;4.580;2022-10-24T07:03:24;6.57;;;1.85;;
75261;SDS011;63859;51.064;4.580;2022-10-24T07:05:50;10.95;;;2.15;;
75261;SDS011;63859;51.064;4.580;2022-10-24T07:08:16;7.55;;;1.80;;
75261;SDS011;63859;51.064;4.580;2022-10-24T07:10:41;8.82;;;2.00;;
75261;SDS011;63859;51.064;4.580;2022-10-24T07:13:07;13.57;;;2.20;;
75261;SDS011;63859;51.064;4.580;2022-10-24T07:15:33;7.13;;;1.40;;
75261;SDS011;63859;51.064;4.580;2022-10-24T07:17:58;14.65;;;2.50;;
75261;SDS011;63859;51.064;4.580;2022-10-24T07:20:24;7.65;;;1.70;;
75261;SDS011;63859;51.064;4.580;2022-10-24T07:22:50;18.50;;;2.58;;
75261;SDS011;63859;51.064;4.580;2022-10-24T07:25:16;12.25;;;2.13;;
75261;SDS011;63859;51.064;4.580;2022-10-24T07:27:41;15.35;;;2.70;;
75261;SDS011;63859;51.064;4.580;2022-10-24T07:30:07;12.93;;;2.60;;
75261;SDS011;63859;51.064;4.580;2022-10-24T07:32:33;11.93;;;2.22;;
75261;SDS011;63859;51.064;4.580;2022-10-24T07:34:59;13.68;;;2.33;;
75261;SDS011;63859;51.064;4.580;2022-10-24T07:37:25;7.47;;;1.92;;
75261;SDS011;63859;51.064;4.580;2022-10-24T07:39:50;10.27;;;2.92;;
75261;SDS011;63859;51.064;4.580;2022-10-24T07:42:16;12.73;;;2.33;;
75261;SDS011;63859;51.064;4.580;2022-10-24T07:44:43;9.75;;;2.72;;
75261;SDS011;63859;51.064;4.580;2022-10-24T07:47:08;13.38;;;2.30;;
75261;SDS011;63859;51.064;4.580;2022-10-24T07:49:36;13.80;;;2.42;;
75261;SDS011;63859;51.064;4.580;2022-10-24T07:52:02;13.20;;;2.60;;
75261;SDS011;63859;51.064;4.580;2022-10-24T07:54:29;13.07;;;2.67;;
75261;SDS011;63859;51.064;4.580;2022-10-24T07:56:55;15.85;;;3.38;;
75261;SDS011;63859;51.064;4.580;2022-10-24T07:59:20;13.32;;;2.53;;
75261;SDS011;63859;51.064;4.580;2022-10-24T08:01:46;10.75;;;2.38;;
75261;SDS011;63859;51.064;4.580;2022-10-24T08:04:12;10.98;;;2.50;;
75261;SDS011;63859;51.064;4.580;2022-10-24T08:06:37;10.63;;;2.55;;
75261;SDS011;63859;51.064;4.580;2022-10-24T08:09:08;11.13;;;2.47;;
75261;SDS011;63859;51.064;4.580;2022-10-24T08:11:34;14.98;;;2.47;;
75261;SDS011;63859;51.064;4.580;2022-10-24T08:14:00;15.60;;;2.80;;
75261;SDS011;63859;51.064;4.580;2022-10-24T08:16:28;13.32;;;3.03;;
75261;SDS011;63859;51.064;4.580;2022-10-24T08:18:55;10.60;;;2.35;;
75261;SDS011;63859;51.064;4.580;2022-10-24T08:21:22;14.65;;;2.88;;
75261;SDS011;63859;51.064;4.580;2022-10-24T08:23:49;13.63;;;2.83;;
75261;SDS011;63859;51.064;4.580;2022-10-24T08:26:17;15.45;;;2.60;;
75261;SDS011;63859;51.064;4.580;2022-10-24T08:28:45;8.52;;;1.88;;
75261;SDS011;63859;51.064;4.580;2022-10-24T08:31:16;15.07;;;2.72;;
75261;SDS011;63859;51.064;4.580;2022-10-24T08:33:43;12.23;;;2.97;;
75261;SDS011;63859;51.064;4.580;2022-10-24T08:36:18;17.30;;;2.78;;
75261;SDS011;63859;51.064;4.580;2022-10-24T08:38:49;18.52;;;3.15;;
75261;SDS011;63859;51.064;4.580;2022-10-24T08:41:15;16.58;;;3.53;;
75261;SDS011;63859;51.064;4.580;2022-10-24T08:43:57;14.77;;;2.63;;
75261;SDS011;63859;51.064;4.580;2022-10-24T08:49:17;14.20;;;2.42;;
75261;SDS011;63859;51.064;4.580;2022-10-24T08:51:49;15.60;;;3.15;;
75261;SDS011;63859;51.064;4.580;2022-10-24T08:54:20;12.50;;;2.65;;
75261;SDS011;63859;51.064;4.580;2022-10-24T08:56:50;12.45;;;2.60;;
75261;SDS011;63859;51.064;4.580;2022-10-24T08:59:18;19.65;;;3.20;;
75261;SDS011;63859;51.064;4.580;2022-10-24T09:01:56;14.43;;;2.47;;
75261;SDS011;63859;51.064;4.580;2022-10-24T09:04:32;13.70;;;2.90;;
75261;SDS011;63859;51.064;4.580;2022-10-24T09:07:02;14.68;;;4.00;;
75261;SDS011;63859;51.064;4.580;2022-10-24T09:09:32;9.27;;;2.60;;
75261;SDS011;63859;51.064;4.580;2022-10-24T09:12:02;14.65;;;3.28;;
75261;SDS011;63859;51.064;4.580;2022-10-24T09:14:32;17.70;;;2.90;;
75261;SDS011;63859;51.064;4.580;2022-10-24T09:17:01;12.63;;;2.47;;
75261;SDS011;63859;51.064;4.580;2022-10-24T09:19:37;19.00;;;3.10;;
75261;SDS011;63859;51.064;4.580;2022-10-24T09:22:02;9.25;;;2.33;;
75261;SDS011;63859;51.064;4.580;2022-10-24T09:27:01;14.27;;;2.50;;
75261;SDS011;63859;51.064;4.580;2022-10-24T09:29:31;13.00;;;2.72;;
75261;SDS011;63859;51.064;4.580;2022-10-24T09:31:57;10.25;;;2.75;;
75261;SDS011;63859;51.064;4.580;2022-10-24T09:34:24;9.68;;;2.50;;
75261;SDS011;63859;51.064;4.580;2022-10-24T09:36:50;21.90;;;3.28;;
75261;SDS011;63859;51.064;4.580;2022-10-24T09:39:32;13.93;;;2.33;;
75261;SDS011;63859;51.064;4.580;2022-10-24T09:42:01;14.77;;;2.50;;
75261;SDS011;63859;51.064;4.580;2022-10-24T09:47:05;16.05;;;2.90;;
75261;SDS011;63859;51.064;4.580;2022-10-24T09:49:45;14.70;;;2.22;;
75261;SDS011;63859;51.064;4.580;2022-10-24T09:54:44;12.02;;;2.70;;
75261;SDS011;63859;51.064;4.580;2022-10-24T09:59:41;16.63;;;2.88;;
75261;SDS011;63859;51.064;4.580;2022-10-24T10:04:35;17.38;;;2.80;;
75261;SDS011;63859;51.064;4.580;2022-10-24T10:07:07;12.98;;;2.55;;
75261;SDS011;63859;51.064;4.580;2022-10-24T10:09:35;14.13;;;2.58;;
75261;SDS011;63859;51.064;4.580;2022-10-24T10:15:16;15.30;;;3.17;;
75261;SDS011;63859;51.064;4.580;2022-10-24T10:21:13;11.48;;;2.70;;
75261;SDS011;63859;51.064;4.580;2022-10-24T10:28:58;16.45;;;3.20;;
75261;SDS011;63859;51.064;4.580;2022-10-24T10:50:39;11.43;;;2.20;;
75261;SDS011;63859;51.064;4.580;2022-10-24T10:58:36;9.07;;;2.10;;
75261;SDS011;63859;51.064;4.580;2022-10-24T11:01:22;10.85;;;2.22;;
75261;SDS011;63859;51.064;4.580;2022-10-24T11:04:12;6.45;;;2.13;;
75261;SDS011;63859;51.064;4.580;2022-10-24T11:09:44;11.00;;;2.42;;
75261;SDS011;63859;51.064;4.580;2022-10-24T11:12:25;16.35;;;2.63;;
75261;SDS011;63859;51.064;4.580;2022-10-24T11:17:30;12.57;;;2.60;;
75261;SDS011;63859;51.064;4.580;2022-10-24T11:31:17;12.13;;;2.53;;
75261;SDS011;63859;51.064;4.580;2022-10-24T11:36:24;10.60;;;2.40;;
75261;SDS011;63859;51.064;4.580;2022-10-24T11:39:02;11.05;;;2.47;;
75261;SDS011;63859;51.064;4.580;2022-10-24T11:41:51;14.63;;;3.13;;
75261;SDS011;63859;51.064;4.580;2022-10-24T11:49:52;9.57;;;2.10;;
75261;SDS011;63859;51.064;4.580;2022-10-24T11:52:37;11.60;;;2.47;;
75261;SDS011;63859;51.064;4.580;2022-10-24T11:58:11;5.93;;;1.58;;
75261;SDS011;63859;51.064;4.580;2022-10-24T12:00:54;9.43;;;2.35;;
75261;SDS011;63859;51.064;4.580;2022-10-24T12:09:09;9.35;;;2.20;;
75261;SDS011;63859;51.064;4.580;2022-10-24T12:12:05;6.97;;;1.70;;
75261;SDS011;63859;51.064;4.580;2022-10-24T12:14:44;10.45;;;1.83;;
75261;SDS011;63859;51.064;4.580;2022-10-24T12:17:26;11.13;;;1.85;;
75261;SDS011;63859;51.064;4.580;2022-10-24T12:20:05;7.70;;;1.83;;
75261;SDS011;63859;51.064;4.580;2022-10-24T12:22:39;9.48;;;2.20;;
75261;SDS011;63859;51.064;4.580;2022-10-24T12:25:13;4.05;;;1.65;;
75261;SDS011;63859;51.064;4.580;2022-10-24T12:27:44;10.68;;;2.17;;
75261;SDS011;63859;51.064;4.580;2022-10-24T12:30:28;10.70;;;1.77;;
75261;SDS011;63859;51.064;4.580;2022-10-24T12:32:57;9.60;;;1.80;;
75261;SDS011;63859;51.064;4.580;2022-10-24T12:38:03;6.85;;;1.70;;
75261;SDS011;63859;51.064;4.580;2022-10-24T12:43:26;11.52;;;1.90;;
75261;SDS011;63859;51.064;4.580;2022-10-24T12:45:58;5.80;;;1.55;;
75261;SDS011;63859;51.064;4.580;2022-10-24T12:48:42;8.98;;;1.73;;
75261;SDS011;63859;51.064;4.580;2022-10-24T12:51:33;9.25;;;2.10;;
75261;SDS011;63859;51.064;4.580;2022-10-24T12:56:36;4.35;;;1.52;;
75261;SDS011;63859;51.064;4.580;2022-10-24T13:10:20;5.80;;;1.40;;
75261;SDS011;63859;51.064;4.580;2022-10-24T13:18:25;6.95;;;1.67;;
75261;SDS011;63859;51.064;4.580;2022-10-24T13:21:13;4.18;;;0.98;;
75261;SDS011;63859;51.064;4.580;2022-10-24T13:23:46;4.55;;;1.30;;
75261;SDS011;63859;51.064;4.580;2022-10-24T13:29:15;7.15;;;1.77;;
75261;SDS011;63859;51.064;4.580;2022-10-24T13:39:50;5.32;;;1.33;;
75261;SDS011;63859;51.064;4.580;2022-10-24T13:44:46;4.95;;;1.58;;
75261;SDS011;63859;51.064;4.580;2022-10-24T13:49:49;8.52;;;1.42;;
75261;SDS011;63859;51.064;4.580;2022-10-24T13:54:55;6.47;;;1.50;;
75261;SDS011;63859;51.064;4.580;2022-10-24T13:57:32;5.35;;;1.50;;
75261;SDS011;63859;51.064;4.580;2022-10-24T14:00:04;5.13;;;1.55;;
75261;SDS011;63859;51.064;4.580;2022-10-24T14:02:41;7.45;;;1.63;;
75261;SDS011;63859;51.064;4.580;2022-10-24T14:05:16;8.63;;;1.73;;
75261;SDS011;63859;51.064;4.580;2022-10-24T14:08:02;3.88;;;1.10;;
75261;SDS011;63859;51.064;4.580;2022-10-24T14:10:29;9.43;;;2.00;;
75261;SDS011;63859;51.064;4.580;2022-10-24T14:12:56;4.53;;;1.45;;
75261;SDS011;63859;51.064;4.580;2022-10-24T14:15:24;7.30;;;1.65;;
75261;SDS011;63859;51.064;4.580;2022-10-24T14:18:03;7.60;;;1.70;;
75261;SDS011;63859;51.064;4.580;2022-10-24T14:20:37;5.30;;;1.42;;
75261;SDS011;63859;51.064;4.580;2022-10-24T14:25:56;4.63;;;1.50;;
75261;SDS011;63859;51.064;4.580;2022-10-24T14:28:26;5.80;;;1.48;;
75261;SDS011;63859;51.064;4.580;2022-10-24T14:30:56;7.60;;;1.92;;
75261;SDS011;63859;51.064;4.580;2022-10-24T14:33:27;9.93;;;2.15;;
75261;SDS011;63859;51.064;4.580;2022-10-24T14:35:55;4.50;;;1.60;;
75261;SDS011;63859;51.064;4.580;2022-10-24T14:38:24;5.13;;;1.50;;
75261;SDS011;63859;51.064;4.580;2022-10-24T14:40:51;10.45;;;2.42;;
75261;SDS011;63859;51.064;4.580;2022-10-24T14:43:19;5.25;;;1.42;;
75261;SDS011;63859;51.064;4.580;2022-10-24T14:46:01;7.30;;;1.67;;
75261;SDS011;63859;51.064;4.580;2022-10-24T14:48:38;9.07;;;1.98;;
75261;SDS011;63859;51.064;4.580;2022-10-24T14:51:16;15.00;;;2.67;;
75261;SDS011;63859;51.064;4.580;2022-10-24T14:53:50;7.00;;;1.95;;
75261;SDS011;63859;51.064;4.580;2022-10-24T14:56:30;8.35;;;1.83;;
75261;SDS011;63859;51.064;4.580;2022-10-24T14:58:58;8.93;;;1.92;;
75261;SDS011;63859;51.064;4.580;2022-10-24T15:01:26;15.90;;;2.65;;
75261;SDS011;63859;51.064;4.580;2022-10-24T15:04:00;11.05;;;2.70;;
75261;SDS011;63859;51.064;4.580;2022-10-24T15:06:35;7.38;;;2.10;;
75261;SDS011;63859;51.064;4.580;2022-10-24T15:11:37;6.97;;;2.63;;
75261;SDS011;63859;51.064;4.580;2022-10-24T15:19:47;6.15;;;2.10;;
75261;SDS011;63859;51.064;4.580;2022-10-24T15:24:52;7.07;;;1.90;;
75261;SDS011;63859;51.064;4.580;2022-10-24T15:29:52;4.50;;;1.60;;
75261;SDS011;63859;51.064;4.580;2022-10-24T15:32:17;8.40;;;2.33;;
75261;SDS011;63859;51.064;4.580;2022-10-24T15:34:43;11.15;;;2.08;;
75261;SDS011;63859;51.064;4.580;2022-10-24T15:37:16;11.70;;;2.30;;
75261;SDS011;63859;51.064;4.580;2022-10-24T15:39:43;12.60;;;2.83;;
75261;SDS011;63859;51.064;4.580;2022-10-24T15:42:09;13.45;;;2.40;;
75261;SDS011;63859;51.064;4.580;2022-10-24T15:44:35;10.35;;;2.45;;
75261;SDS011;63859;51.064;4.580;2022-10-24T15:47:01;13.23;;;2.72;;
75261;SDS011;63859;51.064;4.580;2022-10-24T15:49:27;10.80;;;2.40;;
75261;SDS011;63859;51.064;4.580;2022-10-24T15:51:53;14.50;;;2.67;;
75261;SDS011;63859;51.064;4.580;2022-10-24T15:54:20;15.15;;;2.78;;
75261;SDS011;63859;51.064;4.580;2022-10-24T15:56:47;17.35;;;3.08;;
75261;SDS011;63859;51.064;4.580;2022-10-24T15:59:13;15.52;;;2.60;;
75261;SDS011;63859;51.064;4.580;2022-10-24T16:01:49;14.25;;;3.15;;
75261;SDS011;63859;51.064;4.580;2022-10-24T16:04:17;15.00;;;3.65;;
75261;SDS011;63859;51.064;4.580;2022-10-24T16:06:43;11.15;;;3.47;;
75261;SDS011;63859;51.064;4.580;2022-10-24T16:09:12;13.70;;;2.90;;
75261;SDS011;63859;51.064;4.580;2022-10-24T16:11:39;10.38;;;2.80;;
75261;SDS011;63859;51.064;4.580;2022-10-24T16:14:05;10.55;;;2.92;;
75261;SDS011;63859;51.064;4.580;2022-10-24T16:16:31;13.88;;;2.60;;
75261;SDS011;63859;51.064;4.580;2022-10-24T16:18:56;12.13;;;2.40;;
75261;SDS011;63859;51.064;4.580;2022-10-24T16:21:22;14.05;;;3.00;;
75261;SDS011;63859;51.064;4.580;2022-10-24T16:23:48;15.43;;;3.20;;
75261;SDS011;63859;51.064;4.580;2022-10-24T16:26:14;15.40;;;2.42;;
75261;SDS011;63859;51.064;4.580;2022-10-24T16:28:40;10.02;;;2.17;;
75261;SDS011;63859;51.064;4.580;2022-10-24T16:31:05;13.48;;;3.40;;
75261;SDS011;63859;51.064;4.580;2022-10-24T16:33:31;10.85;;;3.22;;
75261;SDS011;63859;51.064;4.580;2022-10-24T16:35:57;10.52;;;3.05;;
75261;SDS011;63859;51.064;4.580;2022-10-24T16:38:23;14.27;;;2.50;;
75261;SDS011;63859;51.064;4.580;2022-10-24T16:40:49;14.30;;;3.15;;
75261;SDS011;63859;51.064;4.580;2022-10-24T16:43:16;10.68;;;2.63;;
75261;SDS011;63859;51.064;4.580;2022-10-24T16:45:43;13.13;;;2.80;;
75261;SDS011;63859;51.064;4.580;2022-10-24T16:48:11;11.82;;;2.45;;
75261;SDS011;63859;51.064;4.580;2022-10-24T16:50:39;13.63;;;2.70;;
75261;SDS011;63859;51.064;4.580;2022-10-24T16:53:07;9.02;;;2.35;;
75261;SDS011;63859;51.064;4.580;2022-10-24T16:55:34;9.23;;;2.30;;
75261;SDS011;63859;51.064;4.580;2022-10-24T16:58:00;9.02;;;2.50;;
75261;SDS011;63859;51.064;4.580;2022-10-24T17:00:26;13.38;;;2.40;;
75261;SDS011;63859;51.064;4.580;2022-10-24T17:02:52;19.35;;;3.63;;
75261;SDS011;63859;51.064;4.580;2022-10-24T17:05:21;12.50;;;3.17;;
75261;SDS011;63859;51.064;4.580;2022-10-24T17:07:48;12.95;;;2.92;;
75261;SDS011;63859;51.064;4.580;2022-10-24T17:10:14;17.90;;;3.20;;
75261;SDS011;63859;51.064;4.580;2022-10-24T17:12:41;15.60;;;3.13;;
75261;SDS011;63859;51.064;4.580;2022-10-24T17:15:07;16.08;;;3.25;;
75261;SDS011;63859;51.064;4.580;2022-10-24T17:17:34;12.80;;;3.25;;
75261;SDS011;63859;51.064;4.580;2022-10-24T17:20:00;11.60;;;3.15;;
75261;SDS011;63859;51.064;4.580;2022-10-24T17:22:26;15.18;;;3.58;;
75261;SDS011;63859;51.064;4.580;2022-10-24T17:24:52;11.30;;;3.08;;
75261;SDS011;63859;51.064;4.580;2022-10-24T17:27:19;14.43;;;3.55;;
75261;SDS011;63859;51.064;4.580;2022-10-24T17:29:46;17.02;;;3.97;;
75261;SDS011;63859;51.064;4.580;2022-10-24T17:32:12;12.15;;;3.25;;
75261;SDS011;63859;51.064;4.580;2022-10-24T17:34:39;14.57;;;3.78;;
75261;SDS011;63859;51.064;4.580;2022-10-24T17:40:02;10.93;;;2.65;;
75261;SDS011;63859;51.064;4.580;2022-10-24T17:42:35;13.65;;;3.17;;
75261;SDS011;63859;51.064;4.580;2022-10-24T17:45:01;13.80;;;3.45;;
75261;SDS011;63859;51.064;4.580;2022-10-24T17:47:27;19.27;;;3.70;;
75261;SDS011;63859;51.064;4.580;2022-10-24T17:49:53;9.88;;;2.92;;